logo tempoitalia

Diretta Meteo Khudzhand, Tajikistanlunedì 31 agosto ore 10:00

Mappa
Sereno 29 °C Sereno 24 Ore: T.min 19 T.max 36
Ponente Ovest Km/h 28.8 Punto di rugiada: 14 °C Umidità: 39% Visibilità: 10 Km
Il sole sorge alle: 05:47 Il sole tramonta alle: 18:55
31 Agosto 2026 10:00 tempo osservato: Sereno Sereno 29 39 1011 vento: Nord O 28.8
31 Agosto 2026 09:30 tempo osservato: Sereno Sereno 29 42 1011 vento: Nord O/SO 28.8
31 Agosto 2026 09:00 tempo osservato: Sereno Sereno 28 42 1011 vento: Nord O/SO 25.2
31 Agosto 2026 08:30 tempo osservato: Sereno Sereno 29 48 1010 vento: Nord N 7.2
31 Agosto 2026 08:00 tempo osservato: Sereno Sereno 27 54 1010 vento: Nord N 0
31 Agosto 2026 07:30 tempo osservato: Sereno Sereno 25 61 1010 vento: Nord N 3.6
31 Agosto 2026 07:00 tempo osservato: Sereno Sereno 22 64 1010 vento: Nord N 7.2
31 Agosto 2026 06:30 tempo osservato: Sereno Sereno 20 68 1010 vento: Nord N 7.2
31 Agosto 2026 06:00 tempo osservato: Sereno Sereno 19 68 1009 vento: Nord N 7.2
31 Agosto 2026 05:30 tempo osservato: Sereno Sereno 19 68 1009 vento: Nord N 0
31 Agosto 2026 05:00 tempo osservato: Sereno Sereno 20 64 1009 vento: Nord N 0
31 Agosto 2026 04:30 tempo osservato: Sereno Sereno 20 64 1009 vento: Nord N 3.6
31 Agosto 2026 04:00 tempo osservato: Sereno Sereno 21 60 1009 vento: Nord N 7.2
31 Agosto 2026 03:30 tempo osservato: Sereno Sereno 21 60 1009 vento: Nord N 3.6
31 Agosto 2026 03:00 tempo osservato: Sereno Sereno 21 60 1009 vento: Nord S 10.8
31 Agosto 2026 02:30 tempo osservato: Sereno Sereno 21 60 1008 vento: Nord S 10.8
31 Agosto 2026 02:00 tempo osservato: Sereno Sereno 24 50 1008 vento: Nord N 0
31 Agosto 2026 01:30 tempo osservato: Sereno Sereno 25 41 1008 vento: Nord N 7.2
31 Agosto 2026 01:00 tempo osservato: Sereno Sereno 25 44 1008 vento: Nord O/SO 10.8
31 Agosto 2026 00:30 tempo osservato: Sereno Sereno 24 50 1008 vento: Nord O 14.4
31 Agosto 2026 00:00 tempo osservato: Sereno Sereno 24 50 1008 vento: Nord O/SO 14.4
30 Agosto 2026 23:30 tempo osservato: Sereno Sereno 25 50 1008 vento: Nord O/SO 14.4
30 Agosto 2026 23:00 tempo osservato: Sereno Sereno 25 50 1008 vento: Nord O/SO 10.8
30 Agosto 2026 22:30 tempo osservato: Sereno Sereno 26 47 1008 vento: Nord O 14.4
30 Agosto 2026 22:00 tempo osservato: Sereno Sereno 28 42 1008 vento: Nord SO 18
30 Agosto 2026 21:30 tempo osservato: Sereno Sereno 29 39 1008 vento: Nord SO 18
30 Agosto 2026 21:00 tempo osservato: Sereno Sereno 29 39 1008 vento: Nord O/SO 14.4
30 Agosto 2026 20:30 tempo osservato: Sereno Sereno 29 39 1008 vento: Nord SO 21.6
30 Agosto 2026 20:00 tempo osservato: Sereno Sereno 30 40 1008 vento: Nord SO 21.6
30 Agosto 2026 19:30 tempo osservato: Sereno Sereno 30 40 1008 vento: Nord SO 21.6
30 Agosto 2026 19:00 tempo osservato: Sereno Sereno 30 42 1008 vento: Nord SO 18
30 Agosto 2026 18:30 tempo osservato: Sereno Sereno 32 38 1008 vento: Nord SO 18
30 Agosto 2026 18:00 tempo osservato: Sereno Sereno 34 34 1008 vento: Nord SO 18
30 Agosto 2026 17:30 tempo osservato: Sereno Sereno 35 30 1008 vento: Nord SO 21.6
30 Agosto 2026 17:00 tempo osservato: Sereno Sereno 36 26 1008 vento: Nord O/SO 18
30 Agosto 2026 16:30 tempo osservato: Sereno Sereno 36 26 1008 vento: Nord O/SO 10.8
30 Agosto 2026 16:00 tempo osservato: Sereno Sereno 36 25 1008 vento: Nord N 7.2
30 Agosto 2026 15:30 tempo osservato: Sereno Sereno 36 26 1008 vento: Nord N 7.2
30 Agosto 2026 15:00 tempo osservato: Sereno Sereno 36 23 1008 vento: Nord N 7.2
30 Agosto 2026 14:30 tempo osservato: Sereno Sereno 35 24 1008 vento: Nord E/NE 10.8
30 Agosto 2026 14:00 tempo osservato: Sereno Sereno 35 23 1009 vento: Nord N 7.2
30 Agosto 2026 13:30 tempo osservato: Sereno Sereno 35 24 1009 vento: Nord E/NE 14.4
30 Agosto 2026 13:00 tempo osservato: Sereno Sereno 35 24 1009 vento: Nord E/NE 18
30 Agosto 2026 12:30 tempo osservato: Sereno Sereno 34 26 1010 vento: Nord E/NE 18
30 Agosto 2026 12:00 tempo osservato: Sereno Sereno 34 26 1010 vento: Nord E/NE 21.6
30 Agosto 2026 11:30 tempo osservato: Sereno Sereno 32 31 1010 vento: Nord E/NE 18
30 Agosto 2026 11:00 tempo osservato: Sereno Sereno 32 33 1011 vento: Nord E/NE 18